< < Back
Terminal Aerodrome Forecast


Current Version              Previous Versions:   1  2  3  4  5  6  7  8  9  

Terminal Aerodrome Forecast

292
FTUS42 KILM 031135
TAFILM
TAF
KILM 031135Z 0312/0412 17003KT P6SM VCSH SCT060
     FM031800 22006KT P6SM VCSH SCT040 SCT080
     FM032000 20008KT P6SM VCTS SCT050CB BKN080
     FM040600 31003KT P6SM VCSH SCT080 SCT120=



Latest METAR

677
SAUS70 KWBC 032256
MTRILM
METAR KILM 032253Z 24005KT 10SM CLR 26/21 A2988 RMK AO2 SLP116
T02560206


USA.gov is the U.S. government's official web portal to all federal, state and local government web resources and services.